sensor_id;sensor_type;location;lat;lon;timestamp;pressure;altitude;pressure_sealevel;temperature;humidity
77124;BME280;66079;47.646;19.130;2023-07-13T00:01:21;100230.31;;;24.23;72.81
77124;BME280;66079;47.646;19.130;2023-07-13T00:04:25;100216.81;;;23.88;73.12
77124;BME280;66079;47.646;19.130;2023-07-13T00:07:28;100233.44;;;23.80;75.28
77124;BME280;66079;47.646;19.130;2023-07-13T00:10:30;100220.88;;;23.53;77.43
77124;BME280;66079;47.646;19.130;2023-07-13T00:13:33;100202.25;;;23.39;75.73
77124;BME280;66079;47.646;19.130;2023-07-13T00:16:38;100188.66;;;23.27;76.21
77124;BME280;66079;47.646;19.130;2023-07-13T00:19:40;100167.84;;;23.16;77.22
77124;BME280;66079;47.646;19.130;2023-07-13T00:22:43;100134.53;;;23.28;78.47
77124;BME280;66079;47.646;19.130;2023-07-13T00:25:46;100101.91;;;23.28;77.68
77124;BME280;66079;47.646;19.130;2023-07-13T00:28:49;100097.66;;;23.27;76.74
77124;BME280;66079;47.646;19.130;2023-07-13T00:31:51;100068.53;;;23.40;75.95
77124;BME280;66079;47.646;19.130;2023-07-13T00:34:54;100057.72;;;23.50;79.17
77124;BME280;66079;47.646;19.130;2023-07-13T00:37:56;100061.47;;;23.49;78.90
77124;BME280;66079;47.646;19.130;2023-07-13T00:40:59;100062.31;;;23.31;78.75
77124;BME280;66079;47.646;19.130;2023-07-13T00:44:02;100075.50;;;23.36;78.26
77124;BME280;66079;47.646;19.130;2023-07-13T00:47:07;100040.75;;;23.19;78.25
77124;BME280;66079;47.646;19.130;2023-07-13T00:50:11;99993.41;;;23.13;75.61
77124;BME280;66079;47.646;19.130;2023-07-13T00:53:14;99987.09;;;23.09;76.52
77124;BME280;66079;47.646;19.130;2023-07-13T00:56:17;99970.78;;;22.88;76.77
77124;BME280;66079;47.646;19.130;2023-07-13T00:59:20;100008.09;;;22.92;77.58
77124;BME280;66079;47.646;19.130;2023-07-13T01:02:24;99992.69;;;22.94;77.41
77124;BME280;66079;47.646;19.130;2023-07-13T01:05:27;99994.03;;;22.91;76.85
77124;BME280;66079;47.646;19.130;2023-07-13T01:08:30;100001.00;;;22.87;77.97
77124;BME280;66079;47.646;19.130;2023-07-13T01:11:35;99989.28;;;22.75;78.56
77124;BME280;66079;47.646;19.130;2023-07-13T01:14:38;100003.47;;;22.65;79.83
77124;BME280;66079;47.646;19.130;2023-07-13T01:17:41;100006.34;;;22.50;81.49
77124;BME280;66079;47.646;19.130;2023-07-13T01:20:55;100019.94;;;22.43;83.66
77124;BME280;66079;47.646;19.130;2023-07-13T01:23:58;100019.88;;;22.30;84.98
77124;BME280;66079;47.646;19.130;2023-07-13T01:27:00;100028.09;;;22.28;85.14
77124;BME280;66079;47.646;19.130;2023-07-13T01:30:03;100013.44;;;22.17;85.38
77124;BME280;66079;47.646;19.130;2023-07-13T01:33:10;100012.00;;;22.25;86.22
77124;BME280;66079;47.646;19.130;2023-07-13T01:36:12;100022.09;;;22.23;86.87
77124;BME280;66079;47.646;19.130;2023-07-13T01:39:16;100014.00;;;22.14;87.33
77124;BME280;66079;47.646;19.130;2023-07-13T01:42:19;100015.63;;;21.92;88.11
77124;BME280;66079;47.646;19.130;2023-07-13T01:45:23;100000.59;;;21.87;89.07
77124;BME280;66079;47.646;19.130;2023-07-13T01:48:25;100009.69;;;22.00;89.88
77124;BME280;66079;47.646;19.130;2023-07-13T01:51:28;100014.34;;;22.08;89.48
77124;BME280;66079;47.646;19.130;2023-07-13T01:54:30;100016.50;;;22.06;90.24
77124;BME280;66079;47.646;19.130;2023-07-13T01:57:33;100029.28;;;21.99;89.54
77124;BME280;66079;47.646;19.130;2023-07-13T02:00:36;100026.09;;;22.02;90.93
77124;BME280;66079;47.646;19.130;2023-07-13T02:03:38;100030.81;;;22.05;91.37
77124;BME280;66079;47.646;19.130;2023-07-13T02:06:41;100022.31;;;22.08;91.43
77124;BME280;66079;47.646;19.130;2023-07-13T02:09:43;100025.41;;;22.15;91.46
77124;BME280;66079;47.646;19.130;2023-07-13T02:12:47;100022.09;;;22.23;91.13
77124;BME280;66079;47.646;19.130;2023-07-13T02:15:51;100020.50;;;22.22;91.04
77124;BME280;66079;47.646;19.130;2023-07-13T02:18:54;100024.59;;;22.14;91.54
77124;BME280;66079;47.646;19.130;2023-07-13T02:21:58;100015.69;;;22.05;91.87
77124;BME280;66079;47.646;19.130;2023-07-13T02:25:00;99994.47;;;21.92;91.96
77124;BME280;66079;47.646;19.130;2023-07-13T02:28:03;100017.13;;;21.98;92.38
77124;BME280;66079;47.646;19.130;2023-07-13T02:31:11;100019.63;;;21.89;92.44
77124;BME280;66079;47.646;19.130;2023-07-13T02:34:14;100022.78;;;21.91;92.66
77124;BME280;66079;47.646;19.130;2023-07-13T02:37:17;100015.75;;;21.82;92.21
77124;BME280;66079;47.646;19.130;2023-07-13T02:40:19;100023.47;;;21.78;92.78
77124;BME280;66079;47.646;19.130;2023-07-13T02:43:22;100030.59;;;21.78;92.85
77124;BME280;66079;47.646;19.130;2023-07-13T02:46:25;100017.47;;;21.68;92.70
77124;BME280;66079;47.646;19.130;2023-07-13T02:49:31;100005.38;;;21.62;94.22
77124;BME280;66079;47.646;19.130;2023-07-13T02:52:33;100002.50;;;21.58;94.08
77124;BME280;66079;47.646;19.130;2023-07-13T02:55:36;100026.47;;;21.67;93.86
77124;BME280;66079;47.646;19.130;2023-07-13T02:58:38;100024.63;;;21.67;93.92
77124;BME280;66079;47.646;19.130;2023-07-13T03:01:41;100013.66;;;21.55;93.00
77124;BME280;66079;47.646;19.130;2023-07-13T03:04:44;100023.31;;;21.65;93.37
77124;BME280;66079;47.646;19.130;2023-07-13T03:07:46;100026.53;;;21.62;93.18
77124;BME280;66079;47.646;19.130;2023-07-13T03:10:59;100034.69;;;21.65;93.93
77124;BME280;66079;47.646;19.130;2023-07-13T03:14:02;100042.88;;;21.69;93.54
77124;BME280;66079;47.646;19.130;2023-07-13T03:17:09;100056.81;;;21.74;92.29
77124;BME280;66079;47.646;19.130;2023-07-13T03:20:15;100042.22;;;21.82;92.29
77124;BME280;66079;47.646;19.130;2023-07-13T03:23:18;100034.56;;;21.80;91.50
77124;BME280;66079;47.646;19.130;2023-07-13T03:26:20;100041.31;;;21.91;91.92
77124;BME280;66079;47.646;19.130;2023-07-13T03:29:23;100034.88;;;21.97;91.75
77124;BME280;66079;47.646;19.130;2023-07-13T03:32:26;100037.69;;;22.06;90.90
77124;BME280;66079;47.646;19.130;2023-07-13T03:35:29;100029.88;;;22.14;90.04
77124;BME280;66079;47.646;19.130;2023-07-13T03:38:32;100023.56;;;22.10;90.02
77124;BME280;66079;47.646;19.130;2023-07-13T03:41:37;100036.09;;;22.23;89.48
77124;BME280;66079;47.646;19.130;2023-07-13T03:44:41;100041.34;;;22.28;89.67
77124;BME280;66079;47.646;19.130;2023-07-13T03:47:44;100032.50;;;22.38;87.61
77124;BME280;66079;47.646;19.130;2023-07-13T03:50:47;100043.41;;;22.50;87.90
77124;BME280;66079;47.646;19.130;2023-07-13T03:53:51;100059.06;;;22.70;86.33
77124;BME280;66079;47.646;19.130;2023-07-13T03:56:55;100054.56;;;22.71;86.21
77124;BME280;66079;47.646;19.130;2023-07-13T03:59:58;100067.50;;;22.72;86.01
77124;BME280;66079;47.646;19.130;2023-07-13T04:03:00;100064.22;;;22.80;85.25
77124;BME280;66079;47.646;19.130;2023-07-13T04:06:08;100062.75;;;22.88;84.89
77124;BME280;66079;47.646;19.130;2023-07-13T04:09:17;100050.56;;;23.05;85.52
77124;BME280;66079;47.646;19.130;2023-07-13T04:12:20;100062.63;;;23.11;84.51
77124;BME280;66079;47.646;19.130;2023-07-13T04:15:23;100068.22;;;23.10;84.03
77124;BME280;66079;47.646;19.130;2023-07-13T04:18:26;100097.78;;;23.03;83.42
77124;BME280;66079;47.646;19.130;2023-07-13T04:21:30;100102.00;;;23.04;83.48
77124;BME280;66079;47.646;19.130;2023-07-13T04:24:33;100120.91;;;22.98;83.39
77124;BME280;66079;47.646;19.130;2023-07-13T04:27:35;100127.97;;;22.89;84.36
77124;BME280;66079;47.646;19.130;2023-07-13T04:30:38;100149.84;;;22.94;84.42
77124;BME280;66079;47.646;19.130;2023-07-13T04:33:41;100157.88;;;22.89;84.22
77124;BME280;66079;47.646;19.130;2023-07-13T04:36:44;100159.84;;;22.84;84.50
77124;BME280;66079;47.646;19.130;2023-07-13T04:39:46;100133.69;;;22.77;84.73
77124;BME280;66079;47.646;19.130;2023-07-13T04:42:49;100149.53;;;22.82;84.51
77124;BME280;66079;47.646;19.130;2023-07-13T04:45:52;100158.59;;;22.76;84.58
77124;BME280;66079;47.646;19.130;2023-07-13T04:48:55;100159.75;;;22.70;85.79
77124;BME280;66079;47.646;19.130;2023-07-13T04:51:59;100146.94;;;22.59;85.57
77124;BME280;66079;47.646;19.130;2023-07-13T04:55:01;100169.22;;;22.58;86.70
77124;BME280;66079;47.646;19.130;2023-07-13T04:58:04;100182.66;;;22.37;90.04
77124;BME280;66079;47.646;19.130;2023-07-13T05:01:07;100195.69;;;22.34;90.67
77124;BME280;66079;47.646;19.130;2023-07-13T05:04:12;100203.28;;;22.17;91.09
77124;BME280;66079;47.646;19.130;2023-07-13T05:07:15;100222.56;;;22.22;90.55
77124;BME280;66079;47.646;19.130;2023-07-13T05:10:18;100234.13;;;22.03;91.58
77124;BME280;66079;47.646;19.130;2023-07-13T05:13:21;100253.00;;;21.96;92.62
77124;BME280;66079;47.646;19.130;2023-07-13T05:16:24;100299.81;;;22.01;91.49
77124;BME280;66079;47.646;19.130;2023-07-13T05:19:27;100316.78;;;21.51;89.95
77124;BME280;66079;47.646;19.130;2023-07-13T05:22:29;100339.44;;;21.19;91.06
77124;BME280;66079;47.646;19.130;2023-07-13T05:25:32;100337.44;;;20.85;98.25
77124;BME280;66079;47.646;19.130;2023-07-13T05:28:34;100342.00;;;20.55;100.00
77124;BME280;66079;47.646;19.130;2023-07-13T05:31:37;100352.59;;;20.25;100.00
77124;BME280;66079;47.646;19.130;2023-07-13T05:34:42;100345.47;;;20.15;100.00
77124;BME280;66079;47.646;19.130;2023-07-13T05:37:45;65738.94;;;-140.75;100.00
77124;BME280;66079;47.646;19.130;2023-07-13T05:40:47;65738.94;;;-140.75;100.00
77124;BME280;66079;47.646;19.130;2023-07-13T05:43:50;65738.94;;;-140.75;100.00
77124;BME280;66079;47.646;19.130;2023-07-13T05:46:52;65738.94;;;-140.75;100.00
77124;BME280;66079;47.646;19.130;2023-07-13T05:49:55;65738.94;;;-140.75;100.00
77124;BME280;66079;47.646;19.130;2023-07-13T05:52:58;65738.94;;;-140.75;100.00
77124;BME280;66079;47.646;19.130;2023-07-13T05:56:00;65738.94;;;-140.75;100.00
77124;BME280;66079;47.646;19.130;2023-07-13T05:59:04;65738.94;;;-140.75;100.00
77124;BME280;66079;47.646;19.130;2023-07-13T06:02:09;65738.94;;;-140.75;100.00
77124;BME280;66079;47.646;19.130;2023-07-13T06:05:12;65738.94;;;-140.75;100.00
77124;BME280;66079;47.646;19.130;2023-07-13T06:08:15;65738.94;;;-140.75;100.00
77124;BME280;66079;47.646;19.130;2023-07-13T06:11:20;65738.94;;;-140.75;100.00
77124;BME280;66079;47.646;19.130;2023-07-13T06:14:23;65738.94;;;-140.75;100.00
77124;BME280;66079;47.646;19.130;2023-07-13T06:17:27;65738.94;;;-140.75;100.00
77124;BME280;66079;47.646;19.130;2023-07-13T06:20:29;65738.94;;;-140.75;100.00
77124;BME280;66079;47.646;19.130;2023-07-13T06:23:32;65738.94;;;-140.75;100.00
77124;BME280;66079;47.646;19.130;2023-07-13T06:26:35;65738.94;;;-140.75;100.00
77124;BME280;66079;47.646;19.130;2023-07-13T06:29:37;65738.94;;;-140.75;100.00
77124;BME280;66079;47.646;19.130;2023-07-13T06:32:39;65738.94;;;-140.75;100.00
77124;BME280;66079;47.646;19.130;2023-07-13T06:35:43;65738.94;;;-140.75;100.00
77124;BME280;66079;47.646;19.130;2023-07-13T06:38:45;65738.94;;;-140.75;100.00
77124;BME280;66079;47.646;19.130;2023-07-13T06:41:48;65738.94;;;-140.75;100.00
77124;BME280;66079;47.646;19.130;2023-07-13T06:44:54;65738.94;;;-140.75;100.00
77124;BME280;66079;47.646;19.130;2023-07-13T06:47:56;65738.94;;;-140.75;100.00
77124;BME280;66079;47.646;19.130;2023-07-13T06:50:59;65738.94;;;-140.75;100.00
77124;BME280;66079;47.646;19.130;2023-07-13T06:54:01;65738.94;;;-140.75;100.00
77124;BME280;66079;47.646;19.130;2023-07-13T06:57:04;65738.94;;;-140.75;100.00
77124;BME280;66079;47.646;19.130;2023-07-13T07:00:07;65738.94;;;-140.75;100.00
77124;BME280;66079;47.646;19.130;2023-07-13T07:03:12;65738.94;;;-140.75;100.00
77124;BME280;66079;47.646;19.130;2023-07-13T07:06:21;65738.94;;;-140.75;100.00
77124;BME280;66079;47.646;19.130;2023-07-13T07:09:26;65738.94;;;-140.75;100.00
77124;BME280;66079;47.646;19.130;2023-07-13T07:12:29;65738.94;;;-140.75;100.00
77124;BME280;66079;47.646;19.130;2023-07-13T07:15:32;65738.94;;;-140.75;100.00
77124;BME280;66079;47.646;19.130;2023-07-13T07:18:36;65738.94;;;-140.75;100.00
77124;BME280;66079;47.646;19.130;2023-07-13T07:21:39;65738.94;;;-140.75;100.00
77124;BME280;66079;47.646;19.130;2023-07-13T07:24:41;65738.94;;;-140.75;100.00
77124;BME280;66079;47.646;19.130;2023-07-13T07:27:44;65738.94;;;-140.75;100.00
77124;BME280;66079;47.646;19.130;2023-07-13T07:30:53;65738.94;;;-140.75;100.00
77124;BME280;66079;47.646;19.130;2023-07-13T07:34:15;65738.94;;;-140.75;100.00
77124;BME280;66079;47.646;19.130;2023-07-13T07:37:18;65738.94;;;-140.75;100.00
77124;BME280;66079;47.646;19.130;2023-07-13T07:40:23;65738.94;;;-140.75;100.00
77124;BME280;66079;47.646;19.130;2023-07-13T07:43:28;65738.94;;;-140.75;100.00
77124;BME280;66079;47.646;19.130;2023-07-13T07:46:31;65738.94;;;-140.75;100.00
77124;BME280;66079;47.646;19.130;2023-07-13T07:49:35;65738.94;;;-140.75;100.00
77124;BME280;66079;47.646;19.130;2023-07-13T07:52:38;65738.94;;;-140.75;100.00
77124;BME280;66079;47.646;19.130;2023-07-13T07:55:40;65738.94;;;-140.75;100.00
77124;BME280;66079;47.646;19.130;2023-07-13T07:59:03;65738.94;;;-140.75;100.00
77124;BME280;66079;47.646;19.130;2023-07-13T08:02:10;65738.94;;;-140.75;100.00
77124;BME280;66079;47.646;19.130;2023-07-13T08:05:35;65738.94;;;-140.75;100.00
77124;BME280;66079;47.646;19.130;2023-07-13T08:08:57;65738.94;;;-140.75;100.00
77124;BME280;66079;47.646;19.130;2023-07-13T08:12:00;65738.94;;;-140.75;100.00
77124;BME280;66079;47.646;19.130;2023-07-13T08:15:09;65738.94;;;-140.75;100.00
77124;BME280;66079;47.646;19.130;2023-07-13T08:18:12;65738.94;;;-140.75;100.00
77124;BME280;66079;47.646;19.130;2023-07-13T08:21:14;65738.94;;;-140.75;100.00
77124;BME280;66079;47.646;19.130;2023-07-13T08:24:17;65738.94;;;-140.75;100.00
77124;BME280;66079;47.646;19.130;2023-07-13T08:27:20;65738.94;;;-140.75;100.00
77124;BME280;66079;47.646;19.130;2023-07-13T08:30:23;65738.94;;;-140.75;100.00
77124;BME280;66079;47.646;19.130;2023-07-13T08:33:26;65738.94;;;-140.75;100.00
77124;BME280;66079;47.646;19.130;2023-07-13T08:36:29;65738.94;;;-140.75;100.00
77124;BME280;66079;47.646;19.130;2023-07-13T08:39:32;65738.94;;;-140.75;100.00
77124;BME280;66079;47.646;19.130;2023-07-13T08:42:50;65738.94;;;-140.75;100.00
77124;BME280;66079;47.646;19.130;2023-07-13T08:49:17;65738.94;;;-140.75;100.00
77124;BME280;66079;47.646;19.130;2023-07-13T08:52:32;65738.94;;;-140.75;100.00
77124;BME280;66079;47.646;19.130;2023-07-13T08:55:36;65738.94;;;-140.75;100.00
77124;BME280;66079;47.646;19.130;2023-07-13T08:58:41;65738.94;;;-140.75;100.00
77124;BME280;66079;47.646;19.130;2023-07-13T09:02:08;65738.94;;;-140.75;100.00
77124;BME280;66079;47.646;19.130;2023-07-13T09:08:46;65738.94;;;-140.75;100.00
77124;BME280;66079;47.646;19.130;2023-07-13T09:12:00;65738.94;;;-140.75;100.00
77124;BME280;66079;47.646;19.130;2023-07-13T09:15:29;65738.94;;;-140.75;100.00
77124;BME280;66079;47.646;19.130;2023-07-13T09:18:37;65738.94;;;-140.75;100.00
77124;BME280;66079;47.646;19.130;2023-07-13T09:21:42;65738.94;;;-140.75;100.00
77124;BME280;66079;47.646;19.130;2023-07-13T09:24:57;65738.94;;;-140.75;100.00
77124;BME280;66079;47.646;19.130;2023-07-13T09:28:16;65738.94;;;-140.75;100.00
77124;BME280;66079;47.646;19.130;2023-07-13T09:31:30;65738.94;;;-140.75;100.00
77124;BME280;66079;47.646;19.130;2023-07-13T09:34:36;65738.94;;;-140.75;100.00
77124;BME280;66079;47.646;19.130;2023-07-13T09:37:39;65738.94;;;-140.75;100.00
77124;BME280;66079;47.646;19.130;2023-07-13T09:44:14;65738.94;;;-140.75;100.00
77124;BME280;66079;47.646;19.130;2023-07-13T09:47:26;65738.94;;;-140.75;100.00
77124;BME280;66079;47.646;19.130;2023-07-13T09:50:29;65738.94;;;-140.75;100.00
77124;BME280;66079;47.646;19.130;2023-07-13T09:53:31;65738.94;;;-140.75;100.00
77124;BME280;66079;47.646;19.130;2023-07-13T09:56:34;65738.94;;;-140.75;100.00
77124;BME280;66079;47.646;19.130;2023-07-13T09:59:43;65738.94;;;-140.75;100.00
77124;BME280;66079;47.646;19.130;2023-07-13T10:06:15;65738.94;;;-140.75;100.00
77124;BME280;66079;47.646;19.130;2023-07-13T10:09:18;65738.94;;;-140.75;100.00
77124;BME280;66079;47.646;19.130;2023-07-13T10:12:22;65738.94;;;-140.75;100.00
77124;BME280;66079;47.646;19.130;2023-07-13T10:15:27;65738.94;;;-140.75;100.00
77124;BME280;66079;47.646;19.130;2023-07-13T10:18:33;65738.94;;;-140.75;100.00
77124;BME280;66079;47.646;19.130;2023-07-13T10:21:47;65738.94;;;-140.75;100.00
77124;BME280;66079;47.646;19.130;2023-07-13T10:24:52;65738.94;;;-140.75;100.00
77124;BME280;66079;47.646;19.130;2023-07-13T10:28:16;65738.94;;;-140.75;100.00
77124;BME280;66079;47.646;19.130;2023-07-13T10:31:23;65738.94;;;-140.75;100.00
77124;BME280;66079;47.646;19.130;2023-07-13T10:34:27;65738.94;;;-140.75;100.00
77124;BME280;66079;47.646;19.130;2023-07-13T10:37:37;65738.94;;;-140.75;100.00
77124;BME280;66079;47.646;19.130;2023-07-13T10:40:52;65738.94;;;-140.75;100.00
77124;BME280;66079;47.646;19.130;2023-07-13T10:43:57;65738.94;;;-140.75;100.00
77124;BME280;66079;47.646;19.130;2023-07-13T10:47:01;65738.94;;;-140.75;100.00
77124;BME280;66079;47.646;19.130;2023-07-13T10:50:05;65738.94;;;-140.75;100.00
77124;BME280;66079;47.646;19.130;2023-07-13T10:53:29;65738.94;;;-140.75;100.00
77124;BME280;66079;47.646;19.130;2023-07-13T10:56:32;65738.94;;;-140.75;100.00
77124;BME280;66079;47.646;19.130;2023-07-13T10:59:35;65738.94;;;-140.75;100.00
77124;BME280;66079;47.646;19.130;2023-07-13T11:02:38;65738.94;;;-140.75;100.00
77124;BME280;66079;47.646;19.130;2023-07-13T11:05:41;65738.94;;;-140.75;100.00
77124;BME280;66079;47.646;19.130;2023-07-13T11:11:49;65738.94;;;-140.75;100.00
77124;BME280;66079;47.646;19.130;2023-07-13T11:17:57;65738.94;;;-140.75;100.00
77124;BME280;66079;47.646;19.130;2023-07-13T11:21:17;65738.94;;;-140.75;100.00
77124;BME280;66079;47.646;19.130;2023-07-13T11:24:51;65738.94;;;-140.75;100.00
77124;BME280;66079;47.646;19.130;2023-07-13T11:28:05;65738.94;;;-140.75;100.00
77124;BME280;66079;47.646;19.130;2023-07-13T11:31:14;65738.94;;;-140.75;100.00
77124;BME280;66079;47.646;19.130;2023-07-13T11:34:27;65738.94;;;-140.75;100.00
77124;BME280;66079;47.646;19.130;2023-07-13T11:37:31;65738.94;;;-140.75;100.00
77124;BME280;66079;47.646;19.130;2023-07-13T11:40:34;65738.94;;;-140.75;100.00
77124;BME280;66079;47.646;19.130;2023-07-13T11:43:37;65738.94;;;-140.75;100.00
77124;BME280;66079;47.646;19.130;2023-07-13T11:46:45;65738.94;;;-140.75;100.00
77124;BME280;66079;47.646;19.130;2023-07-13T11:49:55;65738.94;;;-140.75;100.00
77124;BME280;66079;47.646;19.130;2023-07-13T11:53:02;65738.94;;;-140.75;100.00
77124;BME280;66079;47.646;19.130;2023-07-13T11:56:06;65738.94;;;-140.75;100.00
77124;BME280;66079;47.646;19.130;2023-07-13T11:59:11;65738.94;;;-140.75;100.00
77124;BME280;66079;47.646;19.130;2023-07-13T12:05:26;65738.94;;;-140.75;100.00
77124;BME280;66079;47.646;19.130;2023-07-13T12:08:29;65738.94;;;-140.75;100.00
77124;BME280;66079;47.646;19.130;2023-07-13T12:11:35;65738.94;;;-140.75;100.00
77124;BME280;66079;47.646;19.130;2023-07-13T12:14:42;65738.94;;;-140.75;100.00
77124;BME280;66079;47.646;19.130;2023-07-13T12:17:45;65738.94;;;-140.75;100.00
77124;BME280;66079;47.646;19.130;2023-07-13T12:20:49;65738.94;;;-140.75;100.00
77124;BME280;66079;47.646;19.130;2023-07-13T12:23:52;65738.94;;;-140.75;100.00
77124;BME280;66079;47.646;19.130;2023-07-13T12:27:04;65738.94;;;-140.75;100.00
77124;BME280;66079;47.646;19.130;2023-07-13T12:30:30;65738.94;;;-140.75;100.00
77124;BME280;66079;47.646;19.130;2023-07-13T12:33:34;65738.94;;;-140.75;100.00
77124;BME280;66079;47.646;19.130;2023-07-13T12:36:40;65738.94;;;-140.75;100.00
77124;BME280;66079;47.646;19.130;2023-07-13T12:39:47;65738.94;;;-140.75;100.00
77124;BME280;66079;47.646;19.130;2023-07-13T12:42:52;65738.94;;;-140.75;100.00
77124;BME280;66079;47.646;19.130;2023-07-13T12:46:00;65738.94;;;-140.75;100.00
77124;BME280;66079;47.646;19.130;2023-07-13T12:49:06;65738.94;;;-140.75;100.00
77124;BME280;66079;47.646;19.130;2023-07-13T12:52:32;65738.94;;;-140.75;100.00
77124;BME280;66079;47.646;19.130;2023-07-13T12:55:47;65738.94;;;-140.75;100.00
77124;BME280;66079;47.646;19.130;2023-07-13T12:58:58;65738.94;;;-140.75;100.00
77124;BME280;66079;47.646;19.130;2023-07-13T13:02:04;65738.94;;;-140.75;100.00
77124;BME280;66079;47.646;19.130;2023-07-13T13:05:21;65738.94;;;-140.75;100.00
77124;BME280;66079;47.646;19.130;2023-07-13T13:08:26;65738.94;;;-140.75;100.00
77124;BME280;66079;47.646;19.130;2023-07-13T13:11:30;65738.94;;;-140.75;100.00
77124;BME280;66079;47.646;19.130;2023-07-13T13:14:34;65738.94;;;-140.75;100.00
77124;BME280;66079;47.646;19.130;2023-07-13T13:17:36;65738.94;;;-140.75;100.00
77124;BME280;66079;47.646;19.130;2023-07-13T13:20:39;65738.94;;;-140.75;100.00
77124;BME280;66079;47.646;19.130;2023-07-13T13:23:41;65738.94;;;-140.75;100.00
77124;BME280;66079;47.646;19.130;2023-07-13T13:26:47;65738.94;;;-140.75;100.00
77124;BME280;66079;47.646;19.130;2023-07-13T13:29:51;65738.94;;;-140.75;100.00
77124;BME280;66079;47.646;19.130;2023-07-13T13:32:56;65738.94;;;-140.75;100.00
77124;BME280;66079;47.646;19.130;2023-07-13T13:35:59;65738.94;;;-140.75;100.00
77124;BME280;66079;47.646;19.130;2023-07-13T13:39:02;65738.94;;;-140.75;100.00
77124;BME280;66079;47.646;19.130;2023-07-13T13:42:08;65738.94;;;-140.75;100.00
77124;BME280;66079;47.646;19.130;2023-07-13T13:45:12;65738.94;;;-140.75;100.00
77124;BME280;66079;47.646;19.130;2023-07-13T13:48:20;65738.94;;;-140.75;100.00
77124;BME280;66079;47.646;19.130;2023-07-13T13:51:24;65738.94;;;-140.75;100.00
77124;BME280;66079;47.646;19.130;2023-07-13T13:54:27;65738.94;;;-140.75;100.00
77124;BME280;66079;47.646;19.130;2023-07-13T13:57:30;65738.94;;;-140.75;100.00
77124;BME280;66079;47.646;19.130;2023-07-13T14:00:33;65738.94;;;-140.75;100.00
77124;BME280;66079;47.646;19.130;2023-07-13T14:03:36;65738.94;;;-140.75;100.00
77124;BME280;66079;47.646;19.130;2023-07-13T14:06:38;65738.94;;;-140.75;100.00
77124;BME280;66079;47.646;19.130;2023-07-13T14:09:43;65738.94;;;-140.75;100.00
77124;BME280;66079;47.646;19.130;2023-07-13T14:12:47;65738.94;;;-140.75;100.00
77124;BME280;66079;47.646;19.130;2023-07-13T14:15:50;65738.94;;;-140.75;100.00
77124;BME280;66079;47.646;19.130;2023-07-13T14:18:55;65738.94;;;-140.75;100.00
77124;BME280;66079;47.646;19.130;2023-07-13T14:22:00;65738.94;;;-140.75;100.00
77124;BME280;66079;47.646;19.130;2023-07-13T14:25:03;65738.94;;;-140.75;100.00
77124;BME280;66079;47.646;19.130;2023-07-13T14:28:24;65738.94;;;-140.75;100.00
77124;BME280;66079;47.646;19.130;2023-07-13T14:31:27;65738.94;;;-140.75;100.00
77124;BME280;66079;47.646;19.130;2023-07-13T14:34:33;65738.94;;;-140.75;100.00
77124;BME280;66079;47.646;19.130;2023-07-13T14:37:36;65738.94;;;-140.75;100.00
77124;BME280;66079;47.646;19.130;2023-07-13T14:40:39;65738.94;;;-140.75;100.00
77124;BME280;66079;47.646;19.130;2023-07-13T14:43:44;65738.94;;;-140.75;100.00
77124;BME280;66079;47.646;19.130;2023-07-13T14:46:47;65738.94;;;-140.75;100.00
77124;BME280;66079;47.646;19.130;2023-07-13T14:49:50;65738.94;;;-140.75;100.00
77124;BME280;66079;47.646;19.130;2023-07-13T14:52:53;65738.94;;;-140.75;100.00
77124;BME280;66079;47.646;19.130;2023-07-13T14:55:55;65738.94;;;-140.75;100.00
77124;BME280;66079;47.646;19.130;2023-07-13T14:58:58;65738.94;;;-140.75;100.00
77124;BME280;66079;47.646;19.130;2023-07-13T15:02:01;65738.94;;;-140.75;100.00
77124;BME280;66079;47.646;19.130;2023-07-13T15:05:18;65738.94;;;-140.75;100.00
77124;BME280;66079;47.646;19.130;2023-07-13T15:08:21;65738.94;;;-140.75;100.00
77124;BME280;66079;47.646;19.130;2023-07-13T15:11:24;65738.94;;;-140.75;100.00
77124;BME280;66079;47.646;19.130;2023-07-13T15:14:27;65738.94;;;-140.75;100.00
77124;BME280;66079;47.646;19.130;2023-07-13T15:20:39;65738.94;;;-140.75;100.00
77124;BME280;66079;47.646;19.130;2023-07-13T15:23:42;65738.94;;;-140.75;100.00
77124;BME280;66079;47.646;19.130;2023-07-13T15:26:45;65738.94;;;-140.75;100.00
77124;BME280;66079;47.646;19.130;2023-07-13T15:29:48;65738.94;;;-140.75;100.00
77124;BME280;66079;47.646;19.130;2023-07-13T15:32:51;65738.94;;;-140.75;100.00
77124;BME280;66079;47.646;19.130;2023-07-13T15:35:55;65738.94;;;-140.75;100.00
77124;BME280;66079;47.646;19.130;2023-07-13T15:38:59;65738.94;;;-140.75;100.00
77124;BME280;66079;47.646;19.130;2023-07-13T15:42:01;65738.94;;;-140.75;100.00
77124;BME280;66079;47.646;19.130;2023-07-13T15:45:19;65738.94;;;-140.75;100.00
77124;BME280;66079;47.646;19.130;2023-07-13T15:48:23;65738.94;;;-140.75;100.00
77124;BME280;66079;47.646;19.130;2023-07-13T15:51:29;65738.94;;;-140.75;100.00
77124;BME280;66079;47.646;19.130;2023-07-13T15:54:32;65738.94;;;-140.75;100.00
77124;BME280;66079;47.646;19.130;2023-07-13T15:57:35;65738.94;;;-140.75;100.00
77124;BME280;66079;47.646;19.130;2023-07-13T16:00:38;65738.94;;;-140.75;100.00
77124;BME280;66079;47.646;19.130;2023-07-13T16:03:45;65738.94;;;-140.75;100.00
77124;BME280;66079;47.646;19.130;2023-07-13T16:06:49;65738.94;;;-140.75;100.00